Raton, New Mexico
Current Conditions -  °F | °C
As of 5:53 AM on Thursday 23 Oct 2014 (Local Time) from KRTN Reporting Station
Clear Clear  
Wind Chill: 33°   Ceiling: Unl
Heat Index: 38°   Visibility: 10mi
Dew Point: 35°   Wind: 6mph
Humidity: 89%   Direction: 60°ENE
Pressure: 30.21"   Gusts: NA
Location:  36.91°N, 104.43°W
Report Text: KRTN 231153Z AUTO 06005KT 10SM CLR 03/02 A3021 RMK AO2 SLP177 T00330017 10089 20028 53004
Loading
Personal Weather Stations






























Interactive Weather Map
Tropical Storm Tracking
New forecast layout! Learn more

10-Day Weather Forecast

Advertisements
Track Severe Weather on mobile